Angelus Oaks, California
Current Conditions -  °F | °C
As of 2:55 PM on Friday 28 Nov 2014 (Local Time) from KL35 Reporting Station
Clear Clear  
Wind Chill: 15°   Ceiling: Unl
Heat Index: 15°   Visibility: 10mi
Dew Point: -15°   Wind: 7mph
Humidity: 12%   Direction: 260°W
Pressure: 30.16"   Gusts: NA
Location:  34.15°N, 116.98°W
Report Text: KL35 282255Z AUTO 26006KT 10SM CLR 15/M15 A3016 RMK AO2
Loading
Personal Weather Stations






























Interactive Weather Map New forecast layout! Learn more

10-Day Weather Forecast

Advertisements
Track Severe Weather on mobile